sensor_id;sensor_type;location;lat;lon;timestamp;pressure;altitude;pressure_sealevel;temperature;humidity
48846;BME280;34665;51.886;5.436;2022-08-21T00:00:24;101549.91;;;21.62;100.00
48846;BME280;34665;51.886;5.436;2022-08-21T00:02:59;101553.22;;;21.65;100.00
48846;BME280;34665;51.886;5.436;2022-08-21T00:05:27;101554.84;;;21.43;100.00
48846;BME280;34665;51.886;5.436;2022-08-21T00:07:54;101551.94;;;21.50;100.00
48846;BME280;34665;51.886;5.436;2022-08-21T00:10:20;101548.44;;;21.55;100.00
48846;BME280;34665;51.886;5.436;2022-08-21T00:12:46;101544.84;;;21.49;100.00
48846;BME280;34665;51.886;5.436;2022-08-21T00:15:15;101549.06;;;21.40;100.00
48846;BME280;34665;51.886;5.436;2022-08-21T00:17:41;101546.47;;;21.11;100.00
48846;BME280;34665;51.886;5.436;2022-08-21T00:20:08;101543.53;;;21.12;100.00
48846;BME280;34665;51.886;5.436;2022-08-21T00:22:35;101548.63;;;21.09;100.00
48846;BME280;34665;51.886;5.436;2022-08-21T00:25:01;101548.22;;;21.00;100.00
48846;BME280;34665;51.886;5.436;2022-08-21T00:27:27;101546.75;;;20.92;100.00
48846;BME280;34665;51.886;5.436;2022-08-21T00:29:53;101553.66;;;21.00;100.00
48846;BME280;34665;51.886;5.436;2022-08-21T00:32:21;101548.78;;;21.02;100.00
48846;BME280;34665;51.886;5.436;2022-08-21T00:34:47;101552.44;;;21.08;100.00
48846;BME280;34665;51.886;5.436;2022-08-21T00:37:12;101552.69;;;20.89;100.00
48846;BME280;34665;51.886;5.436;2022-08-21T00:39:38;101547.81;;;20.91;100.00
48846;BME280;34665;51.886;5.436;2022-08-21T00:42:03;101555.47;;;20.94;100.00
48846;BME280;34665;51.886;5.436;2022-08-21T00:44:29;101554.63;;;20.76;100.00
48846;BME280;34665;51.886;5.436;2022-08-21T00:46:54;101548.78;;;20.68;100.00
48846;BME280;34665;51.886;5.436;2022-08-21T00:49:20;101551.75;;;20.66;100.00
48846;BME280;34665;51.886;5.436;2022-08-21T00:51:49;101549.66;;;20.73;100.00
48846;BME280;34665;51.886;5.436;2022-08-21T00:54:16;101554.63;;;20.76;100.00
48846;BME280;34665;51.886;5.436;2022-08-21T00:56:43;101541.72;;;20.84;100.00
48846;BME280;34665;51.886;5.436;2022-08-21T00:59:10;101546.81;;;20.80;100.00
48846;BME280;34665;51.886;5.436;2022-08-21T01:01:35;101540.16;;;20.88;100.00
48846;BME280;34665;51.886;5.436;2022-08-21T01:04:02;101545.09;;;20.91;100.00
48846;BME280;34665;51.886;5.436;2022-08-21T01:06:28;101536.03;;;20.85;100.00
48846;BME280;34665;51.886;5.436;2022-08-21T01:08:53;101541.22;;;20.87;100.00
48846;BME280;34665;51.886;5.436;2022-08-21T01:11:19;101533.88;;;20.87;100.00
48846;BME280;34665;51.886;5.436;2022-08-21T01:13:45;101538.19;;;20.83;100.00
48846;BME280;34665;51.886;5.436;2022-08-21T01:16:15;101548.38;;;20.76;100.00
48846;BME280;34665;51.886;5.436;2022-08-21T01:18:43;101538.22;;;20.71;100.00
48846;BME280;34665;51.886;5.436;2022-08-21T01:21:18;101538.00;;;20.73;100.00
48846;BME280;34665;51.886;5.436;2022-08-21T01:23:46;101537.00;;;20.62;100.00
48846;BME280;34665;51.886;5.436;2022-08-21T01:26:15;101537.00;;;20.62;100.00
48846;BME280;34665;51.886;5.436;2022-08-21T01:28:56;101540.22;;;20.59;100.00
48846;BME280;34665;51.886;5.436;2022-08-21T01:31:24;101536.34;;;20.55;100.00
48846;BME280;34665;51.886;5.436;2022-08-21T01:33:50;101538.06;;;20.61;100.00
48846;BME280;34665;51.886;5.436;2022-08-21T01:36:16;101537.66;;;20.52;100.00
48846;BME280;34665;51.886;5.436;2022-08-21T01:38:42;101547.94;;;20.50;100.00
48846;BME280;34665;51.886;5.436;2022-08-21T01:41:08;101547.94;;;20.50;100.00
48846;BME280;34665;51.886;5.436;2022-08-21T01:43:33;101543.09;;;20.52;100.00
48846;BME280;34665;51.886;5.436;2022-08-21T01:45:59;101529.72;;;20.51;100.00
48846;BME280;34665;51.886;5.436;2022-08-21T01:48:25;101545.31;;;20.55;100.00
48846;BME280;34665;51.886;5.436;2022-08-21T01:50:51;101535.44;;;20.49;100.00
48846;BME280;34665;51.886;5.436;2022-08-21T01:53:16;101536.81;;;20.52;100.00
48846;BME280;34665;51.886;5.436;2022-08-21T01:55:43;101537.72;;;20.40;100.00
48846;BME280;34665;51.886;5.436;2022-08-21T01:58:09;101534.09;;;20.34;100.00
48846;BME280;34665;51.886;5.436;2022-08-21T02:00:35;101534.91;;;20.35;100.00
48846;BME280;34665;51.886;5.436;2022-08-21T02:03:00;101528.22;;;20.26;100.00
48846;BME280;34665;51.886;5.436;2022-08-21T02:05:26;101536.69;;;20.12;100.00
48846;BME280;34665;51.886;5.436;2022-08-21T02:07:53;101529.19;;;20.19;100.00
48846;BME280;34665;51.886;5.436;2022-08-21T02:10:24;101525.31;;;20.15;100.00
48846;BME280;34665;51.886;5.436;2022-08-21T02:12:52;101526.84;;;20.23;100.00
48846;BME280;34665;51.886;5.436;2022-08-21T02:15:18;101524.44;;;20.27;100.00
48846;BME280;34665;51.886;5.436;2022-08-21T02:17:50;101526.06;;;20.28;100.00
48846;BME280;34665;51.886;5.436;2022-08-21T02:20:32;101522.25;;;20.12;100.00
48846;BME280;34665;51.886;5.436;2022-08-21T02:22:58;101520.63;;;20.11;100.00
48846;BME280;34665;51.886;5.436;2022-08-21T02:25:25;101517.75;;;19.88;100.00
48846;BME280;34665;51.886;5.436;2022-08-21T02:27:52;101516.84;;;19.71;100.00
48846;BME280;34665;51.886;5.436;2022-08-21T02:30:24;101516.50;;;19.67;100.00
48846;BME280;34665;51.886;5.436;2022-08-21T02:32:49;101520.28;;;19.66;100.00
48846;BME280;34665;51.886;5.436;2022-08-21T02:35:15;101517.25;;;19.51;100.00
48846;BME280;34665;51.886;5.436;2022-08-21T02:38:03;101519.59;;;19.59;100.00
48846;BME280;34665;51.886;5.436;2022-08-21T02:40:33;101515.25;;;19.87;100.00
48846;BME280;34665;51.886;5.436;2022-08-21T02:43:00;101514.59;;;19.80;100.00
48846;BME280;34665;51.886;5.436;2022-08-21T02:45:28;101511.00;;;19.50;100.00
48846;BME280;34665;51.886;5.436;2022-08-21T02:48:00;101510.31;;;19.43;100.00
48846;BME280;34665;51.886;5.436;2022-08-21T02:50:29;101511.19;;;19.60;100.00
48846;BME280;34665;51.886;5.436;2022-08-21T02:52:55;101507.22;;;19.51;100.00
48846;BME280;34665;51.886;5.436;2022-08-21T02:55:22;101509.22;;;19.56;100.00
48846;BME280;34665;51.886;5.436;2022-08-21T02:57:49;101498.53;;;19.37;100.00
48846;BME280;34665;51.886;5.436;2022-08-21T03:00:15;101497.25;;;19.40;100.00
48846;BME280;34665;51.886;5.436;2022-08-21T03:02:41;101503.81;;;19.56;100.00
48846;BME280;34665;51.886;5.436;2022-08-21T03:05:08;101506.72;;;19.66;100.00
48846;BME280;34665;51.886;5.436;2022-08-21T03:07:36;101502.16;;;19.55;100.00
48846;BME280;34665;51.886;5.436;2022-08-21T03:10:02;101501.44;;;19.47;100.00
48846;BME280;34665;51.886;5.436;2022-08-21T03:12:28;101500.41;;;19.37;100.00
48846;BME280;34665;51.886;5.436;2022-08-21T03:14:53;101501.72;;;19.34;100.00
48846;BME280;34665;51.886;5.436;2022-08-21T03:17:19;101508.09;;;19.28;100.00
48846;BME280;34665;51.886;5.436;2022-08-21T03:19:44;101491.69;;;19.23;100.00
48846;BME280;34665;51.886;5.436;2022-08-21T03:22:10;101490.75;;;19.41;100.00
48846;BME280;34665;51.886;5.436;2022-08-21T03:24:35;101494.63;;;19.45;100.00
48846;BME280;34665;51.886;5.436;2022-08-21T03:27:01;101494.97;;;19.37;100.00
48846;BME280;34665;51.886;5.436;2022-08-21T03:29:26;101492.06;;;19.14;100.00
48846;BME280;34665;51.886;5.436;2022-08-21T03:31:52;101489.13;;;19.16;100.00
48846;BME280;34665;51.886;5.436;2022-08-21T03:34:20;101483.34;;;19.12;100.00
48846;BME280;34665;51.886;5.436;2022-08-21T03:36:47;101479.47;;;19.20;100.00
48846;BME280;34665;51.886;5.436;2022-08-21T03:39:14;101477.34;;;19.22;100.00
48846;BME280;34665;51.886;5.436;2022-08-21T03:41:39;101470.13;;;19.28;100.00
48846;BME280;34665;51.886;5.436;2022-08-21T03:44:05;101468.63;;;19.20;100.00
48846;BME280;34665;51.886;5.436;2022-08-21T03:46:30;101466.44;;;19.46;100.00
48846;BME280;34665;51.886;5.436;2022-08-21T03:48:55;101468.47;;;19.39;100.00
48846;BME280;34665;51.886;5.436;2022-08-21T03:51:21;101470.81;;;19.35;100.00
48846;BME280;34665;51.886;5.436;2022-08-21T03:53:47;101465.63;;;19.33;100.00
48846;BME280;34665;51.886;5.436;2022-08-21T03:56:13;101464.47;;;19.29;100.00
48846;BME280;34665;51.886;5.436;2022-08-21T03:58:39;101474.25;;;19.30;100.00
48846;BME280;34665;51.886;5.436;2022-08-21T04:01:05;101471.28;;;19.44;100.00
48846;BME280;34665;51.886;5.436;2022-08-21T04:03:32;101472.13;;;19.32;100.00
48846;BME280;34665;51.886;5.436;2022-08-21T04:05:59;101474.34;;;19.35;100.00
48846;BME280;34665;51.886;5.436;2022-08-21T04:08:24;101481.53;;;19.42;100.00
48846;BME280;34665;51.886;5.436;2022-08-21T04:10:52;101476.72;;;19.32;100.00
48846;BME280;34665;51.886;5.436;2022-08-21T04:13:19;101482.72;;;19.34;100.00
48846;BME280;34665;51.886;5.436;2022-08-21T04:15:46;101486.63;;;19.38;100.00
48846;BME280;34665;51.886;5.436;2022-08-21T04:18:12;101481.41;;;19.37;100.00
48846;BME280;34665;51.886;5.436;2022-08-21T04:20:39;101479.91;;;19.29;100.00
48846;BME280;34665;51.886;5.436;2022-08-21T04:23:05;101477.66;;;19.26;100.00
48846;BME280;34665;51.886;5.436;2022-08-21T04:25:31;101487.22;;;19.28;100.00
48846;BME280;34665;51.886;5.436;2022-08-21T04:27:56;101484.31;;;19.18;100.00
48846;BME280;34665;51.886;5.436;2022-08-21T04:30:23;101485.69;;;19.09;100.00
48846;BME280;34665;51.886;5.436;2022-08-21T04:32:50;101479.44;;;18.96;100.00
48846;BME280;34665;51.886;5.436;2022-08-21T04:35:19;101492.06;;;18.90;100.00
48846;BME280;34665;51.886;5.436;2022-08-21T04:37:46;101489.84;;;18.99;100.00
48846;BME280;34665;51.886;5.436;2022-08-21T04:40:14;101487.22;;;18.81;100.00
48846;BME280;34665;51.886;5.436;2022-08-21T04:42:49;101490.88;;;18.86;100.00
48846;BME280;34665;51.886;5.436;2022-08-21T04:45:36;101493.00;;;18.72;100.00
48846;BME280;34665;51.886;5.436;2022-08-21T04:48:05;101494.88;;;18.84;100.00
48846;BME280;34665;51.886;5.436;2022-08-21T04:51:02;101496.03;;;18.88;100.00
48846;BME280;34665;51.886;5.436;2022-08-21T04:53:37;101495.13;;;18.82;100.00
48846;BME280;34665;51.886;5.436;2022-08-21T04:56:13;101490.28;;;18.84;100.00
48846;BME280;34665;51.886;5.436;2022-08-21T04:58:39;101499.22;;;18.61;100.00
48846;BME280;34665;51.886;5.436;2022-08-21T05:01:11;101498.41;;;18.60;100.00
48846;BME280;34665;51.886;5.436;2022-08-21T05:03:39;101499.69;;;18.58;100.00
48846;BME280;34665;51.886;5.436;2022-08-21T05:06:08;101492.97;;;18.48;100.00
48846;BME280;34665;51.886;5.436;2022-08-21T05:08:36;101495.19;;;18.52;100.00
48846;BME280;34665;51.886;5.436;2022-08-21T05:11:03;101496.25;;;18.51;100.00
48846;BME280;34665;51.886;5.436;2022-08-21T05:13:29;101497.91;;;18.52;100.00
48846;BME280;34665;51.886;5.436;2022-08-21T05:15:55;101506.38;;;18.55;100.00
48846;BME280;34665;51.886;5.436;2022-08-21T05:18:21;101512.06;;;18.66;100.00
48846;BME280;34665;51.886;5.436;2022-08-21T05:20:46;101515.56;;;18.66;100.00
48846;BME280;34665;51.886;5.436;2022-08-21T05:23:13;101517.94;;;18.51;100.00
48846;BME280;34665;51.886;5.436;2022-08-21T05:25:40;101522.78;;;18.72;100.00
48846;BME280;34665;51.886;5.436;2022-08-21T05:28:06;101525.63;;;18.77;100.00
48846;BME280;34665;51.886;5.436;2022-08-21T05:30:33;101526.75;;;18.58;100.00
48846;BME280;34665;51.886;5.436;2022-08-21T05:33:01;101520.41;;;18.64;100.00
48846;BME280;34665;51.886;5.436;2022-08-21T05:35:28;101524.28;;;18.56;100.00
48846;BME280;34665;51.886;5.436;2022-08-21T05:37:54;101524.88;;;18.46;100.00
48846;BME280;34665;51.886;5.436;2022-08-21T05:40:20;101520.88;;;18.61;100.00
48846;BME280;34665;51.886;5.436;2022-08-21T05:42:46;101528.69;;;18.69;100.00
48846;BME280;34665;51.886;5.436;2022-08-21T05:45:12;101529.84;;;18.73;100.00
48846;BME280;34665;51.886;5.436;2022-08-21T05:47:37;101528.22;;;18.72;100.00
48846;BME280;34665;51.886;5.436;2022-08-21T05:50:03;101526.41;;;18.66;100.00
48846;BME280;34665;51.886;5.436;2022-08-21T05:52:29;101530.34;;;18.70;100.00
48846;BME280;34665;51.886;5.436;2022-08-21T05:54:55;101514.19;;;18.75;100.00
48846;BME280;34665;51.886;5.436;2022-08-21T05:57:21;101525.03;;;18.87;100.00
48846;BME280;34665;51.886;5.436;2022-08-21T05:59:47;101533.16;;;18.75;100.00
48846;BME280;34665;51.886;5.436;2022-08-21T06:02:13;101521.16;;;18.95;100.00
48846;BME280;34665;51.886;5.436;2022-08-21T06:04:40;101522.38;;;18.99;100.00
48846;BME280;34665;51.886;5.436;2022-08-21T06:07:06;101525.84;;;18.88;100.00
48846;BME280;34665;51.886;5.436;2022-08-21T06:09:32;101521.88;;;19.26;100.00
48846;BME280;34665;51.886;5.436;2022-08-21T06:12:03;101524.81;;;19.13;100.00
48846;BME280;34665;51.886;5.436;2022-08-21T06:14:28;101528.44;;;18.95;100.00
48846;BME280;34665;51.886;5.436;2022-08-21T06:16:54;101531.56;;;19.22;100.00
48846;BME280;34665;51.886;5.436;2022-08-21T06:19:19;101531.53;;;19.46;100.00
48846;BME280;34665;51.886;5.436;2022-08-21T06:21:45;101527.41;;;19.31;100.00
48846;BME280;34665;51.886;5.436;2022-08-21T06:24:11;101528.72;;;19.41;100.00
48846;BME280;34665;51.886;5.436;2022-08-21T06:26:36;101531.06;;;19.49;100.00
48846;BME280;34665;51.886;5.436;2022-08-21T06:29:02;101535.31;;;19.45;100.00
48846;BME280;34665;51.886;5.436;2022-08-21T06:31:28;101532.84;;;19.31;100.00
48846;BME280;34665;51.886;5.436;2022-08-21T06:33:54;101525.22;;;19.69;100.00
48846;BME280;34665;51.886;5.436;2022-08-21T06:36:20;101529.78;;;19.28;100.00
48846;BME280;34665;51.886;5.436;2022-08-21T06:38:46;101536.66;;;19.71;100.00
48846;BME280;34665;51.886;5.436;2022-08-21T06:41:12;101537.69;;;19.82;100.00
48846;BME280;34665;51.886;5.436;2022-08-21T06:43:37;101531.97;;;19.67;100.00
48846;BME280;34665;51.886;5.436;2022-08-21T06:46:03;101528.66;;;19.65;100.00
48846;BME280;34665;51.886;5.436;2022-08-21T06:48:28;101537.09;;;19.80;100.00
48846;BME280;34665;51.886;5.436;2022-08-21T06:50:58;101541.38;;;19.76;100.00
48846;BME280;34665;51.886;5.436;2022-08-21T06:53:23;101542.03;;;19.83;100.00
48846;BME280;34665;51.886;5.436;2022-08-21T06:55:49;101528.19;;;19.68;100.00
48846;BME280;34665;51.886;5.436;2022-08-21T06:58:15;101537.81;;;19.87;100.00
48846;BME280;34665;51.886;5.436;2022-08-21T07:00:45;101538.03;;;19.86;100.00
48846;BME280;34665;51.886;5.436;2022-08-21T07:03:25;101533.56;;;19.91;100.00
48846;BME280;34665;51.886;5.436;2022-08-21T07:05:53;101531.00;;;20.60;100.00
48846;BME280;34665;51.886;5.436;2022-08-21T07:08:18;101530.72;;;20.44;100.00
48846;BME280;34665;51.886;5.436;2022-08-21T07:10:44;101524.50;;;20.15;100.00
48846;BME280;34665;51.886;5.436;2022-08-21T07:13:10;101536.47;;;20.02;100.00
48846;BME280;34665;51.886;5.436;2022-08-21T07:15:36;101530.22;;;20.47;100.00
48846;BME280;34665;51.886;5.436;2022-08-21T07:18:01;101525.00;;;20.92;100.00
48846;BME280;34665;51.886;5.436;2022-08-21T07:20:29;101530.75;;;20.78;100.00
48846;BME280;34665;51.886;5.436;2022-08-21T07:22:59;101526.84;;;20.57;100.00
48846;BME280;34665;51.886;5.436;2022-08-21T07:25:26;101525.91;;;20.81;100.00
48846;BME280;34665;51.886;5.436;2022-08-21T07:27:52;101527.78;;;20.63;100.00
48846;BME280;34665;51.886;5.436;2022-08-21T07:30:19;101534.50;;;20.43;100.00
48846;BME280;34665;51.886;5.436;2022-08-21T07:32:45;101522.19;;;21.04;100.00
48846;BME280;34665;51.886;5.436;2022-08-21T07:35:11;101518.22;;;21.12;100.00
48846;BME280;34665;51.886;5.436;2022-08-21T07:37:37;101525.94;;;21.20;100.00
48846;BME280;34665;51.886;5.436;2022-08-21T07:40:03;101514.66;;;21.28;100.00
48846;BME280;34665;51.886;5.436;2022-08-21T07:42:29;101515.38;;;21.24;100.00
48846;BME280;34665;51.886;5.436;2022-08-21T07:44:55;101519.06;;;21.34;100.00
48846;BME280;34665;51.886;5.436;2022-08-21T07:47:21;101526.09;;;21.30;100.00
48846;BME280;34665;51.886;5.436;2022-08-21T07:49:46;101531.66;;;21.41;100.00
48846;BME280;34665;51.886;5.436;2022-08-21T07:52:18;101522.75;;;21.90;100.00
48846;BME280;34665;51.886;5.436;2022-08-21T07:54:45;101527.84;;;21.81;100.00
48846;BME280;34665;51.886;5.436;2022-08-21T07:57:11;101525.75;;;21.66;100.00
48846;BME280;34665;51.886;5.436;2022-08-21T07:59:36;101528.31;;;21.56;100.00
48846;BME280;34665;51.886;5.436;2022-08-21T08:02:02;101519.91;;;21.57;100.00
48846;BME280;34665;51.886;5.436;2022-08-21T08:04:27;101530.78;;;22.02;100.00
48846;BME280;34665;51.886;5.436;2022-08-21T08:06:53;101531.63;;;21.80;100.00
48846;BME280;34665;51.886;5.436;2022-08-21T08:09:18;101523.84;;;21.67;100.00
48846;BME280;34665;51.886;5.436;2022-08-21T08:11:44;101528.06;;;22.02;100.00
48846;BME280;34665;51.886;5.436;2022-08-21T08:14:10;101517.78;;;22.09;100.00
48846;BME280;34665;51.886;5.436;2022-08-21T08:16:35;101511.72;;;22.29;100.00
48846;BME280;34665;51.886;5.436;2022-08-21T08:19:01;101510.88;;;22.29;100.00
48846;BME280;34665;51.886;5.436;2022-08-21T08:21:28;101509.22;;;22.23;100.00
48846;BME280;34665;51.886;5.436;2022-08-21T08:23:54;101505.72;;;22.27;100.00
48846;BME280;34665;51.886;5.436;2022-08-21T08:26:19;101505.19;;;22.30;100.00
48846;BME280;34665;51.886;5.436;2022-08-21T08:28:44;101512.44;;;22.47;100.00
48846;BME280;34665;51.886;5.436;2022-08-21T08:31:13;101512.25;;;22.59;100.00
48846;BME280;34665;51.886;5.436;2022-08-21T08:33:39;101516.78;;;22.81;100.00
48846;BME280;34665;51.886;5.436;2022-08-21T08:36:04;101512.19;;;22.86;100.00
48846;BME280;34665;51.886;5.436;2022-08-21T08:38:30;101519.84;;;22.89;100.00
48846;BME280;34665;51.886;5.436;2022-08-21T08:41:12;101509.97;;;22.45;100.00
48846;BME280;34665;51.886;5.436;2022-08-21T08:43:39;101515.84;;;22.65;100.00
48846;BME280;34665;51.886;5.436;2022-08-21T08:46:12;101516.84;;;22.86;100.00
48846;BME280;34665;51.886;5.436;2022-08-21T08:48:57;101516.41;;;22.67;100.00
48846;BME280;34665;51.886;5.436;2022-08-21T08:54:32;101509.75;;;22.85;100.00
48846;BME280;34665;51.886;5.436;2022-08-21T08:57:00;101511.03;;;23.20;100.00
48846;BME280;34665;51.886;5.436;2022-08-21T08:59:37;101509.94;;;23.16;100.00
48846;BME280;34665;51.886;5.436;2022-08-21T09:02:04;101511.06;;;23.89;100.00
48846;BME280;34665;51.886;5.436;2022-08-21T09:04:31;101503.38;;;23.81;100.00
48846;BME280;34665;51.886;5.436;2022-08-21T09:09:45;101500.47;;;24.86;100.00
48846;BME280;34665;51.886;5.436;2022-08-21T09:12:19;101501.06;;;24.52;100.00
48846;BME280;34665;51.886;5.436;2022-08-21T09:15:32;101507.31;;;24.94;100.00
48846;BME280;34665;51.886;5.436;2022-08-21T09:18:20;101512.78;;;24.88;100.00
48846;BME280;34665;51.886;5.436;2022-08-21T09:24:26;101502.44;;;25.67;100.00
48846;BME280;34665;51.886;5.436;2022-08-21T09:27:12;101507.28;;;25.80;100.00
48846;BME280;34665;51.886;5.436;2022-08-21T09:29:42;101515.31;;;26.51;100.00
48846;BME280;34665;51.886;5.436;2022-08-21T09:32:23;101502.84;;;26.64;100.00
48846;BME280;34665;51.886;5.436;2022-08-21T09:34:56;101510.25;;;26.29;100.00
48846;BME280;34665;51.886;5.436;2022-08-21T09:37:23;101510.78;;;26.95;100.00
48846;BME280;34665;51.886;5.436;2022-08-21T09:39:49;101516.13;;;27.11;100.00
48846;BME280;34665;51.886;5.436;2022-08-21T09:42:24;101527.97;;;27.55;100.00
48846;BME280;34665;51.886;5.436;2022-08-21T09:45:05;101518.66;;;27.51;100.00
48846;BME280;34665;51.886;5.436;2022-08-21T09:47:31;101523.63;;;27.73;100.00
48846;BME280;34665;51.886;5.436;2022-08-21T09:50:07;101523.09;;;27.46;100.00
48846;BME280;34665;51.886;5.436;2022-08-21T09:52:34;101519.50;;;27.02;100.00
48846;BME280;34665;51.886;5.436;2022-08-21T09:54:59;101519.44;;;27.08;100.00
48846;BME280;34665;51.886;5.436;2022-08-21T09:57:27;101510.34;;;26.83;100.00
48846;BME280;34665;51.886;5.436;2022-08-21T10:00:18;101520.34;;;26.68;100.00
48846;BME280;34665;51.886;5.436;2022-08-21T10:02:44;101516.88;;;28.23;100.00
48846;BME280;34665;51.886;5.436;2022-08-21T10:05:24;101521.66;;;29.11;100.00
48846;BME280;34665;51.886;5.436;2022-08-21T10:07:51;101521.13;;;29.37;100.00
48846;BME280;34665;51.886;5.436;2022-08-21T10:10:23;101512.78;;;30.30;100.00
48846;BME280;34665;51.886;5.436;2022-08-21T10:13:12;101522.75;;;30.17;100.00
48846;BME280;34665;51.886;5.436;2022-08-21T10:18:27;101518.81;;;29.30;100.00
48846;BME280;34665;51.886;5.436;2022-08-21T10:21:09;101522.88;;;28.58;100.00
48846;BME280;34665;51.886;5.436;2022-08-21T10:26:26;101523.16;;;30.56;100.00
48846;BME280;34665;51.886;5.436;2022-08-21T10:35:29;101512.06;;;28.47;100.00
48846;BME280;34665;51.886;5.436;2022-08-21T10:42:52;101508.31;;;28.57;100.00
48846;BME280;34665;51.886;5.436;2022-08-21T10:45:45;101507.09;;;29.89;100.00
48846;BME280;34665;51.886;5.436;2022-08-21T10:48:22;101514.28;;;30.99;100.00
48846;BME280;34665;51.886;5.436;2022-08-21T10:51:13;101503.69;;;29.93;100.00
48846;BME280;34665;51.886;5.436;2022-08-21T10:53:50;101508.19;;;29.52;100.00
48846;BME280;34665;51.886;5.436;2022-08-21T10:56:20;101496.69;;;29.86;100.00
48846;BME280;34665;51.886;5.436;2022-08-21T10:59:04;101508.25;;;29.74;100.00
48846;BME280;34665;51.886;5.436;2022-08-21T11:01:52;101496.34;;;30.56;100.00
48846;BME280;34665;51.886;5.436;2022-08-21T11:07:18;101500.34;;;29.45;100.00
48846;BME280;34665;51.886;5.436;2022-08-21T11:09:47;101505.13;;;30.04;99.67
48846;BME280;34665;51.886;5.436;2022-08-21T11:12:35;101500.53;;;31.93;86.21
48846;BME280;34665;51.886;5.436;2022-08-21T11:15:33;101503.75;;;32.30;75.94
48846;BME280;34665;51.886;5.436;2022-08-21T11:18:07;101500.88;;;32.74;65.84
48846;BME280;34665;51.886;5.436;2022-08-21T11:20:49;101504.56;;;34.44;61.86
48846;BME280;34665;51.886;5.436;2022-08-21T11:23:18;101508.56;;;33.07;64.95
48846;BME280;34665;51.886;5.436;2022-08-21T11:25:50;101497.66;;;31.22;73.47
48846;BME280;34665;51.886;5.436;2022-08-21T11:28:24;101499.34;;;32.85;65.68
48846;BME280;34665;51.886;5.436;2022-08-21T11:31:02;101506.06;;;34.08;58.87
48846;BME280;34665;51.886;5.436;2022-08-21T11:36:30;101500.97;;;33.98;55.90
48846;BME280;34665;51.886;5.436;2022-08-21T11:41:31;101500.72;;;35.73;47.26
48846;BME280;34665;51.886;5.436;2022-08-21T11:47:13;101498.13;;;32.65;61.81
48846;BME280;34665;51.886;5.436;2022-08-21T11:49:57;101502.28;;;31.71;66.76
48846;BME280;34665;51.886;5.436;2022-08-21T11:52:40;101506.50;;;32.30;63.83
48846;BME280;34665;51.886;5.436;2022-08-21T11:55:23;101497.69;;;32.28;66.39
48846;BME280;34665;51.886;5.436;2022-08-21T11:57:59;101502.78;;;33.94;59.51
48846;BME280;34665;51.886;5.436;2022-08-21T12:00:31;101505.63;;;35.93;49.03
48846;BME280;34665;51.886;5.436;2022-08-21T12:03:16;101524.81;;;36.39;42.71
48846;BME280;34665;51.886;5.436;2022-08-21T12:05:57;101523.84;;;36.95;39.70
48846;BME280;34665;51.886;5.436;2022-08-21T12:08:38;101521.44;;;36.17;40.79
48846;BME280;34665;51.886;5.436;2022-08-21T12:13:38;101511.03;;;35.20;44.87
48846;BME280;34665;51.886;5.436;2022-08-21T12:16:07;101502.56;;;32.49;57.97
48846;BME280;34665;51.886;5.436;2022-08-21T12:18:33;101517.00;;;32.72;58.79
48846;BME280;34665;51.886;5.436;2022-08-21T12:21:26;101494.91;;;31.22;69.52
48846;BME280;34665;51.886;5.436;2022-08-21T12:26:53;101500.91;;;30.84;71.90
48846;BME280;34665;51.886;5.436;2022-08-21T12:29:30;101502.00;;;30.74;71.34
48846;BME280;34665;51.886;5.436;2022-08-21T12:32:00;101506.19;;;33.57;57.35
48846;BME280;34665;51.886;5.436;2022-08-21T12:34:36;101512.47;;;36.24;48.91
48846;BME280;34665;51.886;5.436;2022-08-21T12:37:09;101515.81;;;37.62;41.86
48846;BME280;34665;51.886;5.436;2022-08-21T12:39:43;101525.00;;;36.62;39.85
48846;BME280;34665;51.886;5.436;2022-08-21T12:42:46;101507.41;;;35.56;41.50
48846;BME280;34665;51.886;5.436;2022-08-21T12:45:28;101514.69;;;35.36;43.77
48846;BME280;34665;51.886;5.436;2022-08-21T12:47:56;101507.41;;;34.82;46.23
48846;BME280;34665;51.886;5.436;2022-08-21T12:50:49;101508.31;;;34.49;50.07
48846;BME280;34665;51.886;5.436;2022-08-21T12:55:53;101505.09;;;35.34;49.25
48846;BME280;34665;51.886;5.436;2022-08-21T12:58:25;101539.03;;;36.66;42.42
48846;BME280;34665;51.886;5.436;2022-08-21T13:01:05;101517.59;;;36.22;44.54
48846;BME280;34665;51.886;5.436;2022-08-21T13:03:36;101527.13;;;38.08;41.43
48846;BME280;34665;51.886;5.436;2022-08-21T13:06:04;101525.94;;;36.82;42.17
48846;BME280;34665;51.886;5.436;2022-08-21T13:08:32;101530.69;;;37.89;40.10
48846;BME280;34665;51.886;5.436;2022-08-21T13:11:03;101523.31;;;37.06;41.32
48846;BME280;34665;51.886;5.436;2022-08-21T13:13:32;101535.56;;;35.42;42.70
48846;BME280;34665;51.886;5.436;2022-08-21T13:16:07;101535.56;;;35.30;43.73
48846;BME280;34665;51.886;5.436;2022-08-21T13:18:51;101519.28;;;36.10;45.92
48846;BME280;34665;51.886;5.436;2022-08-21T13:21:17;101525.47;;;36.20;43.33
48846;BME280;34665;51.886;5.436;2022-08-21T13:23:43;101525.06;;;38.05;39.08
48846;BME280;34665;51.886;5.436;2022-08-21T13:26:34;101533.94;;;37.91;36.43
48846;BME280;34665;51.886;5.436;2022-08-21T13:29:07;101525.84;;;38.25;34.67
48846;BME280;34665;51.886;5.436;2022-08-21T13:31:36;101530.13;;;37.60;34.18
48846;BME280;34665;51.886;5.436;2022-08-21T13:34:03;101532.69;;;37.69;34.73
48846;BME280;34665;51.886;5.436;2022-08-21T13:36:32;101516.84;;;36.69;37.30
48846;BME280;34665;51.886;5.436;2022-08-21T13:38:59;101522.53;;;37.05;36.34
48846;BME280;34665;51.886;5.436;2022-08-21T13:41:32;101530.22;;;37.83;35.04